createdAt,value
2019-01-13T00:02:58.339Z,17.30
2019-01-13T00:06:03.668Z,18.40
2019-01-13T00:09:09.768Z,16.60
2019-01-13T00:12:14.822Z,17.07
2019-01-13T00:15:19.910Z,18.20
2019-01-13T00:18:24.976Z,16.73
2019-01-13T00:21:30.020Z,17.10
2019-01-13T00:24:35.138Z,15.97
2019-01-13T00:27:40.237Z,15.00
2019-01-13T00:30:45.191Z,16.17
2019-01-13T00:33:50.180Z,15.97
2019-01-13T00:36:55.386Z,16.80
2019-01-13T00:40:00.629Z,15.33
2019-01-13T00:43:06.217Z,16.40
2019-01-13T00:46:11.232Z,16.13
2019-01-13T00:49:16.525Z,14.97
2019-01-13T00:52:21.640Z,15.17
2019-01-13T00:55:26.561Z,15.70
2019-01-13T00:58:34.460Z,14.80
2019-01-13T01:01:39.555Z,15.37
2019-01-13T01:04:44.706Z,14.47
2019-01-13T01:07:50.771Z,14.33
2019-01-13T01:10:56.142Z,14.70
2019-01-13T01:14:01.216Z,15.93
2019-01-13T01:17:06.611Z,16.27
2019-01-13T01:20:12.911Z,15.17
2019-01-13T01:23:17.966Z,15.97
2019-01-13T01:26:23.069Z,13.80
2019-01-13T01:29:28.218Z,15.10
2019-01-13T01:32:33.285Z,16.13
2019-01-13T01:35:38.500Z,16.60
2019-01-13T01:38:43.730Z,16.70
2019-01-13T01:41:48.710Z,13.83
2019-01-13T01:44:53.741Z,16.83
2019-01-13T01:47:58.634Z,14.97
2019-01-13T01:51:03.731Z,14.97
2019-01-13T01:54:08.675Z,17.43
2019-01-13T01:57:13.674Z,17.47
2019-01-13T02:00:20.893Z,15.00
2019-01-13T02:03:25.827Z,15.40
2019-01-13T02:06:30.742Z,17.60
2019-01-13T02:09:35.712Z,18.73
2019-01-13T02:12:40.713Z,16.60
2019-01-13T02:15:46.047Z,17.47
2019-01-13T02:18:51.321Z,16.50
2019-01-13T02:21:56.272Z,17.27
2019-01-13T02:25:01.476Z,16.87
2019-01-13T02:28:06.563Z,15.20
2019-01-13T02:31:11.692Z,14.93
2019-01-13T02:34:16.591Z,15.70
2019-01-13T02:37:21.714Z,15.00
2019-01-13T02:40:26.913Z,16.93
2019-01-13T02:43:31.741Z,18.30
2019-01-13T02:46:36.806Z,22.57
2019-01-13T02:49:41.558Z,24.33
2019-01-13T02:52:46.257Z,24.83
2019-01-13T02:55:50.936Z,27.03
2019-01-13T02:58:55.941Z,25.00
2019-01-13T03:02:01.051Z,27.70
2019-01-13T03:05:07.333Z,26.93
2019-01-13T03:08:12.445Z,25.77
2019-01-13T03:11:17.749Z,21.50
2019-01-13T03:14:23.045Z,27.50
2019-01-13T03:17:28.005Z,27.77
2019-01-13T03:20:32.909Z,27.00
2019-01-13T03:23:37.787Z,24.60
2019-01-13T03:26:42.741Z,27.27
2019-01-13T03:29:47.756Z,25.13
2019-01-13T03:32:52.664Z,28.57
2019-01-13T03:35:57.841Z,26.10
2019-01-13T03:39:02.746Z,25.80
2019-01-13T03:42:07.890Z,23.10
2019-01-13T03:45:12.921Z,22.10
2019-01-13T03:48:18.013Z,19.90
2019-01-13T03:51:22.795Z,18.87
2019-01-13T03:54:27.797Z,16.20
2019-01-13T03:57:32.762Z,12.33
2019-01-13T04:00:37.919Z,11.80
2019-01-13T04:03:42.845Z,11.27
2019-01-13T04:06:47.885Z,10.37
2019-01-13T04:09:52.925Z,10.43
2019-01-13T04:12:57.995Z,8.73
2019-01-13T04:16:03.790Z,8.50
2019-01-13T04:19:08.800Z,9.37
2019-01-13T04:22:13.891Z,9.43
2019-01-13T04:25:18.892Z,9.60
2019-01-13T04:28:23.797Z,9.73
2019-01-13T04:31:28.851Z,10.00
2019-01-13T04:34:33.935Z,9.50
2019-01-13T04:37:39.026Z,10.67
2019-01-13T04:40:44.224Z,9.30
2019-01-13T04:43:49.305Z,9.10
2019-01-13T04:46:54.701Z,8.80
2019-01-13T04:49:59.718Z,9.67
2019-01-13T04:53:05.457Z,7.60
2019-01-13T04:56:10.293Z,7.73
2019-01-13T04:59:15.225Z,7.20
2019-01-13T05:02:20.237Z,8.07
2019-01-13T05:05:25.163Z,7.90
2019-01-13T05:08:30.089Z,7.10
2019-01-13T05:11:35.083Z,7.60
2019-01-13T05:14:40.186Z,7.40
2019-01-13T05:17:45.263Z,6.63
2019-01-13T05:20:50.557Z,6.03
2019-01-13T05:23:55.597Z,7.33
2019-01-13T05:27:00.513Z,6.60
2019-01-13T05:30:08.048Z,6.67
2019-01-13T05:33:13.229Z,7.83
2019-01-13T05:36:18.221Z,7.57
2019-01-13T05:39:23.375Z,6.93
2019-01-13T05:42:28.322Z,6.77
2019-01-13T05:45:33.162Z,7.00
2019-01-13T05:48:38.125Z,7.83
2019-01-13T05:51:43.125Z,8.10
2019-01-13T05:54:48.272Z,7.70
2019-01-13T05:57:53.290Z,8.13
2019-01-13T06:00:58.553Z,12.73
2019-01-13T06:04:03.491Z,14.83
2019-01-13T06:07:08.370Z,14.17
2019-01-13T06:10:32.184Z,17.60
2019-01-13T06:13:37.164Z,19.10
2019-01-13T06:16:42.056Z,19.57
2019-01-13T06:19:47.225Z,21.20
2019-01-13T06:22:52.150Z,19.57
2019-01-13T06:25:57.393Z,21.73
2019-01-13T06:29:02.474Z,19.63
2019-01-13T06:32:07.684Z,20.10
2019-01-13T06:35:12.639Z,20.90
2019-01-13T06:38:17.532Z,19.57
2019-01-13T06:41:22.586Z,19.77
2019-01-13T06:44:27.620Z,21.00
2019-01-13T06:47:32.458Z,24.87
2019-01-13T06:50:37.517Z,21.20
2019-01-13T06:53:42.603Z,20.47
2019-01-13T06:56:47.639Z,20.93
2019-01-13T06:59:52.745Z,21.00
2019-01-13T07:02:59.245Z,20.73
2019-01-13T07:06:04.513Z,17.73
2019-01-13T07:09:09.509Z,19.93
2019-01-13T07:12:17.068Z,17.57
2019-01-13T07:15:22.186Z,19.07
2019-01-13T07:18:27.428Z,17.40
2019-01-13T07:21:32.433Z,18.67
2019-01-13T07:24:57.936Z,17.23
2019-01-13T07:28:03.051Z,18.17
2019-01-13T07:31:07.976Z,20.03
2019-01-13T07:34:13.138Z,18.53
2019-01-13T07:37:18.156Z,18.10
2019-01-13T07:40:24.108Z,17.70
2019-01-13T07:43:32.326Z,18.47
2019-01-13T07:46:37.342Z,20.20
2019-01-13T07:49:42.372Z,20.13
2019-01-13T07:52:47.702Z,19.00
2019-01-13T07:55:52.901Z,17.13
2019-01-13T07:58:59.289Z,18.20
2019-01-13T08:02:04.193Z,18.07
2019-01-13T08:05:09.316Z,18.30
2019-01-13T08:08:14.494Z,18.50
2019-01-13T08:11:19.495Z,17.30
2019-01-13T08:14:24.536Z,20.87
2019-01-13T08:17:29.489Z,20.03
2019-01-13T08:20:34.669Z,17.80
2019-01-13T08:23:39.824Z,17.10
2019-01-13T08:26:44.820Z,20.00
2019-01-13T08:29:49.791Z,22.60
2019-01-13T08:32:54.656Z,20.20
2019-01-13T08:35:59.581Z,18.30
2019-01-13T08:39:07.317Z,17.83
2019-01-13T08:42:12.302Z,17.63
2019-01-13T08:45:17.987Z,18.23
2019-01-13T08:48:23.277Z,19.03
2019-01-13T08:51:28.314Z,19.00
2019-01-13T08:54:33.544Z,17.17
2019-01-13T08:57:38.671Z,16.70
2019-01-13T09:00:43.827Z,15.70
2019-01-13T09:03:49.277Z,17.43
2019-01-13T09:06:54.574Z,15.87
2019-01-13T09:09:59.746Z,15.77
2019-01-13T09:13:05.425Z,16.50
2019-01-13T09:16:12.256Z,15.07
2019-01-13T09:19:17.589Z,14.23
2019-01-13T09:22:22.584Z,13.33
2019-01-13T09:25:27.868Z,15.83
2019-01-13T09:28:32.790Z,14.17
2019-01-13T09:31:37.964Z,14.70
2019-01-13T09:34:43.064Z,13.57
2019-01-13T09:37:48.227Z,12.47
2019-01-13T09:40:53.144Z,12.53
2019-01-13T09:43:58.243Z,11.63
2019-01-13T09:47:03.149Z,12.60
2019-01-13T09:50:09.733Z,11.73
2019-01-13T09:53:14.869Z,11.23
2019-01-13T09:56:19.896Z,9.00
2019-01-13T09:59:24.837Z,8.70
2019-01-13T10:02:29.693Z,8.10
2019-01-13T10:05:34.904Z,8.00
2019-01-13T10:08:39.995Z,9.20
2019-01-13T10:11:44.971Z,8.83
2019-01-13T10:14:50.129Z,9.00
2019-01-13T10:17:55.243Z,8.07
2019-01-13T10:21:00.102Z,7.70
2019-01-13T10:24:05.124Z,8.60
2019-01-13T10:27:10.230Z,7.60
2019-01-13T10:30:17.664Z,7.20
2019-01-13T10:33:22.886Z,6.40
2019-01-13T10:36:27.936Z,7.30
2019-01-13T10:39:33.007Z,8.00
2019-01-13T10:42:38.253Z,9.43
2019-01-13T10:45:43.195Z,8.63
2019-01-13T10:48:48.218Z,6.83
2019-01-13T10:51:53.265Z,7.60
2019-01-13T10:55:00.353Z,8.10
2019-01-13T10:58:06.278Z,8.10
2019-01-13T11:01:11.244Z,9.27
2019-01-13T11:04:16.217Z,7.23
2019-01-13T11:07:21.628Z,7.47
2019-01-13T11:10:26.716Z,6.40
2019-01-13T11:13:33.895Z,6.77
2019-01-13T11:16:38.935Z,7.60
2019-01-13T11:19:43.955Z,6.40
2019-01-13T11:22:49.083Z,5.93
2019-01-13T11:25:54.022Z,6.37
2019-01-13T11:28:59.129Z,7.00
2019-01-13T11:32:03.998Z,6.90
2019-01-13T11:35:10.539Z,5.43
2019-01-13T11:38:15.455Z,5.63
2019-01-13T11:41:20.555Z,7.00
2019-01-13T11:44:25.428Z,4.43
2019-01-13T11:47:30.657Z,5.00
2019-01-13T11:50:36.403Z,5.43
2019-01-13T11:53:41.570Z,5.43
2019-01-13T11:56:46.408Z,6.37
2019-01-13T11:59:51.313Z,8.30
2019-01-13T12:02:56.413Z,7.37
2019-01-13T12:06:01.462Z,8.10
2019-01-13T12:09:11.944Z,8.73
2019-01-13T12:12:17.247Z,9.30
2019-01-13T12:15:22.592Z,9.20
2019-01-13T12:18:28.114Z,8.90
2019-01-13T12:21:33.052Z,9.37
2019-01-13T12:24:38.383Z,9.07
2019-01-13T12:27:43.659Z,7.80
2019-01-13T12:30:48.871Z,5.67
2019-01-13T12:33:53.910Z,5.30
2019-01-13T12:36:59.265Z,7.50
2019-01-13T12:40:05.202Z,7.07
2019-01-13T12:43:10.383Z,5.40
2019-01-13T12:46:15.798Z,6.80
2019-01-13T12:49:21.086Z,6.93
2019-01-13T12:52:26.155Z,4.07
2019-01-13T12:55:31.208Z,4.20
2019-01-13T12:58:36.479Z,5.00
2019-01-13T13:01:41.531Z,5.90
2019-01-13T13:04:46.593Z,4.50
2019-01-13T13:07:52.341Z,5.10
2019-01-13T13:10:58.390Z,4.73
2019-01-13T13:14:03.574Z,4.17
2019-01-13T13:17:08.750Z,4.90
2019-01-13T13:20:14.334Z,4.33
2019-01-13T13:23:19.429Z,4.23
2019-01-13T13:26:24.398Z,4.40
2019-01-13T13:29:29.742Z,4.70
2019-01-13T13:32:34.679Z,4.10
2019-01-13T13:35:40.244Z,5.20
2019-01-13T13:38:45.297Z,5.07
2019-01-13T13:41:50.723Z,4.43
2019-01-13T13:44:55.705Z,4.87
2019-01-13T13:48:01.056Z,4.97
2019-01-13T13:51:06.411Z,5.13
2019-01-13T13:54:15.102Z,5.00
2019-01-13T13:57:20.311Z,4.93
2019-01-13T14:00:34.325Z,4.77
2019-01-13T14:03:45.526Z,4.57
2019-01-13T14:06:46.118Z,4.60
2019-01-13T14:09:51.163Z,4.57
2019-01-13T14:12:56.276Z,4.27
2019-01-13T14:16:01.593Z,3.80
2019-01-13T14:19:06.752Z,3.93
2019-01-13T14:22:11.576Z,4.63
2019-01-13T14:25:16.543Z,4.00
2019-01-13T14:28:21.670Z,4.83
2019-01-13T14:31:26.892Z,4.40
2019-01-13T14:34:32.054Z,5.00
2019-01-13T14:37:37.153Z,5.07
2019-01-13T14:40:42.129Z,10.30
2019-01-13T14:43:47.127Z,7.63
2019-01-13T14:46:55.828Z,5.77
2019-01-13T14:50:00.808Z,6.60
2019-01-13T14:53:07.614Z,6.93
2019-01-13T14:56:12.382Z,7.40
2019-01-13T14:59:17.134Z,7.10
2019-01-13T15:02:21.908Z,7.40
2019-01-13T15:05:27.096Z,6.80
2019-01-13T15:08:32.275Z,7.43
2019-01-13T15:11:37.149Z,8.10
2019-01-13T15:14:42.155Z,9.33
2019-01-13T15:17:47.345Z,9.60
2019-01-13T15:20:52.455Z,11.40
2019-01-13T15:23:57.670Z,14.70
2019-01-13T15:27:02.717Z,14.23
2019-01-13T15:30:12.343Z,12.10
2019-01-13T15:33:17.937Z,19.70
2019-01-13T15:36:22.854Z,13.60
2019-01-13T15:39:27.741Z,15.23
2019-01-13T15:42:32.648Z,13.37
2019-01-13T15:45:37.868Z,22.20
2019-01-13T15:48:42.741Z,11.83
2019-01-13T15:51:49.467Z,9.43
2019-01-13T15:54:54.791Z,8.70
2019-01-13T15:57:59.874Z,9.80
2019-01-13T16:01:04.966Z,8.23
2019-01-13T16:04:14.506Z,17.13
2019-01-13T16:07:16.523Z,10.43
2019-01-13T16:10:22.913Z,17.50
2019-01-13T16:13:27.984Z,9.40
2019-01-13T16:16:33.094Z,10.77
2019-01-13T16:19:39.254Z,9.37
2019-01-13T16:22:44.456Z,11.00
2019-01-13T16:25:49.484Z,13.60
2019-01-13T16:28:54.569Z,12.13
2019-01-13T16:31:59.636Z,12.33
2019-01-13T16:35:04.884Z,12.73
2019-01-13T16:38:09.809Z,13.20
2019-01-13T16:41:15.108Z,12.77
2019-01-13T16:44:20.688Z,12.63
2019-01-13T16:47:25.957Z,15.40
2019-01-13T16:50:31.008Z,13.47
2019-01-13T16:53:36.465Z,15.40
2019-01-13T16:56:43.950Z,14.93
2019-01-13T16:59:48.837Z,13.50
2019-01-13T17:02:53.800Z,12.13
2019-01-13T17:05:58.723Z,11.73
2019-01-13T17:09:07.262Z,11.90
2019-01-13T17:12:12.370Z,11.30
2019-01-13T17:15:19.002Z,11.17
2019-01-13T17:18:24.184Z,12.87
2019-01-13T17:21:29.276Z,13.83
2019-01-13T17:24:34.448Z,12.27
2019-01-13T17:27:39.394Z,12.23
2019-01-13T17:30:44.473Z,13.33
2019-01-13T17:33:49.724Z,15.10
2019-01-13T17:36:54.683Z,15.23
2019-01-13T17:39:59.845Z,15.30
2019-01-13T17:43:04.937Z,15.37
2019-01-13T17:46:10.191Z,16.30
2019-01-13T17:49:15.213Z,15.37
2019-01-13T17:52:20.466Z,17.30
2019-01-13T17:55:27.315Z,15.97
2019-01-13T17:58:32.632Z,16.00
2019-01-13T18:01:41.737Z,17.10
2019-01-13T18:04:46.683Z,16.83
2019-01-13T18:07:51.786Z,14.97
2019-01-13T18:10:56.901Z,12.83
2019-01-13T18:14:02.511Z,13.50
2019-01-13T18:17:07.497Z,13.90
2019-01-13T18:20:15.747Z,15.23
2019-01-13T18:23:20.857Z,15.73
2019-01-13T18:26:25.986Z,15.37
2019-01-13T18:29:31.287Z,16.27
2019-01-13T18:32:36.247Z,14.70
2019-01-13T18:35:41.384Z,16.30
2019-01-13T18:38:46.538Z,16.27
2019-01-13T18:41:51.841Z,15.47
2019-01-13T18:44:56.953Z,16.47
2019-01-13T18:48:02.117Z,16.00
2019-01-13T18:51:07.039Z,16.77
2019-01-13T18:54:12.140Z,22.07
2019-01-13T18:57:17.509Z,19.30
2019-01-13T19:00:23.195Z,19.50
2019-01-13T19:03:28.429Z,19.40
2019-01-13T19:06:34.029Z,21.60
2019-01-13T19:09:39.085Z,22.70
2019-01-13T19:12:44.384Z,27.10
2019-01-13T19:15:50.785Z,23.77
2019-01-13T19:18:56.359Z,20.20
2019-01-13T19:22:01.465Z,18.73
2019-01-13T19:25:17.203Z,17.40
2019-01-13T19:28:22.320Z,17.30
2019-01-13T19:31:27.329Z,15.70
2019-01-13T19:34:32.780Z,15.10
2019-01-13T19:37:37.729Z,20.17
2019-01-13T19:40:44.007Z,18.73
2019-01-13T19:43:49.420Z,21.03
2019-01-13T19:46:54.818Z,20.40
2019-01-13T19:49:59.871Z,31.57
2019-01-13T19:53:08.948Z,31.23
2019-01-13T19:56:14.027Z,24.03
2019-01-13T19:59:19.228Z,18.00
2019-01-13T20:02:24.211Z,17.57
2019-01-13T20:05:29.949Z,19.05
2019-01-13T20:08:35.146Z,18.13
2019-01-13T20:11:40.406Z,17.07
2019-01-13T20:14:45.530Z,17.43
2019-01-13T20:17:50.534Z,16.07
2019-01-13T20:20:55.746Z,17.20
2019-01-13T20:24:01.179Z,17.43
2019-01-13T20:27:06.370Z,15.10
2019-01-13T20:30:14.694Z,17.37
2019-01-13T20:33:19.974Z,16.30
2019-01-13T20:36:25.111Z,15.97
2019-01-13T20:39:30.178Z,15.77
2019-01-13T20:42:35.225Z,18.57
2019-01-13T20:45:42.161Z,18.80
2019-01-13T20:48:47.399Z,18.10
2019-01-13T20:51:52.464Z,16.43
2019-01-13T20:54:57.466Z,17.93
2019-01-13T20:58:02.618Z,17.83
2019-01-13T21:01:07.692Z,16.83
2019-01-13T21:04:12.815Z,16.53
2019-01-13T21:07:17.993Z,14.60
2019-01-13T21:10:23.296Z,15.27
2019-01-13T21:13:28.423Z,15.70
2019-01-13T21:16:33.636Z,15.23
2019-01-13T21:19:38.663Z,14.70
2019-01-13T21:22:43.564Z,16.50
2019-01-13T21:25:48.850Z,15.53
2019-01-13T21:28:53.957Z,15.50
2019-01-13T21:31:59.322Z,13.90
2019-01-13T21:35:04.761Z,14.70
2019-01-13T21:38:10.243Z,13.60
2019-01-13T21:41:19.336Z,13.93
2019-01-13T21:44:24.484Z,13.40
2019-01-13T21:47:30.251Z,14.90
2019-01-13T21:50:35.922Z,14.97
2019-01-13T21:53:46.669Z,14.60
2019-01-13T21:56:53.729Z,14.10
2019-01-13T21:59:59.501Z,14.03
2019-01-13T22:03:04.888Z,15.00
2019-01-13T22:06:10.700Z,13.43
2019-01-13T22:09:16.585Z,13.53
2019-01-13T22:12:21.549Z,13.20
2019-01-13T22:15:27.748Z,15.03
2019-01-13T22:18:34.290Z,12.03
2019-01-13T22:21:39.471Z,11.80
2019-01-13T22:24:44.440Z,13.53
2019-01-13T22:27:49.418Z,16.40
2019-01-13T22:30:54.318Z,12.70
2019-01-13T22:33:59.267Z,12.67
2019-01-13T22:37:04.757Z,13.47
2019-01-13T22:40:12.310Z,13.67
2019-01-13T22:43:17.309Z,11.53
2019-01-13T22:46:22.750Z,12.17
2019-01-13T22:49:27.890Z,10.70
2019-01-13T22:52:32.860Z,13.20
2019-01-13T22:55:37.756Z,11.60
2019-01-13T22:58:42.722Z,10.70
2019-01-13T23:02:08.096Z,11.53
2019-01-13T23:05:13.376Z,10.93
2019-01-13T23:08:18.422Z,10.20
2019-01-13T23:11:23.363Z,10.40
2019-01-13T23:14:28.355Z,10.67
2019-01-13T23:17:33.509Z,14.80
2019-01-13T23:20:38.590Z,18.97
2019-01-13T23:23:43.703Z,17.00
2019-01-13T23:26:48.757Z,12.50
2019-01-13T23:29:53.725Z,11.50
2019-01-13T23:32:58.664Z,11.67
2019-01-13T23:36:03.725Z,11.20
2019-01-13T23:39:09.549Z,10.90
2019-01-13T23:42:14.577Z,7.87
2019-01-13T23:45:19.830Z,9.10
2019-01-13T23:48:24.832Z,9.40
2019-01-13T23:51:29.996Z,8.83
2019-01-13T23:54:35.162Z,8.43
2019-01-13T23:57:40.093Z,9.70
